createdAt,value
2022-10-29T00:02:08.806Z,99619.84
2022-10-29T00:04:35.583Z,99626.53
2022-10-29T00:07:02.296Z,99631.56
2022-10-29T00:09:29.093Z,99614.63
2022-10-29T00:11:55.882Z,99623.97
2022-10-29T00:14:22.916Z,99631.22
2022-10-29T00:16:49.683Z,99629.53
2022-10-29T00:19:16.373Z,99624.25
2022-10-29T00:21:43.206Z,99633.28
2022-10-29T00:24:10.728Z,99629.16
2022-10-29T00:26:37.543Z,99633.91
2022-10-29T00:29:04.305Z,99618.53
2022-10-29T00:31:31.653Z,99629.63
2022-10-29T00:33:58.487Z,99626.97
2022-10-29T00:36:27.343Z,99619.34
2022-10-29T00:38:54.340Z,99621.16
2022-10-29T00:41:23.546Z,99632.13
2022-10-29T00:43:52.849Z,99634.97
2022-10-29T00:46:29.989Z,99633.63
2022-10-29T00:48:57.680Z,99633.38
2022-10-29T00:51:25.733Z,99639.53
2022-10-29T00:53:56.465Z,99640.34
2022-10-29T00:56:24.495Z,99648.25
2022-10-29T00:58:51.375Z,99641.75
2022-10-29T01:01:18.347Z,99634.81
2022-10-29T01:03:45.329Z,99638.69
2022-10-29T01:06:12.470Z,99632.00
2022-10-29T01:08:39.163Z,99632.72
2022-10-29T01:11:59.154Z,99639.69
2022-10-29T01:15:13.524Z,99645.78
2022-10-29T01:17:58.810Z,99649.66
2022-10-29T01:21:13.430Z,99643.97
2022-10-29T01:24:24.983Z,99647.59
2022-10-29T01:27:38.451Z,99640.09
2022-10-29T01:30:46.797Z,99645.59
2022-10-29T01:33:25.696Z,99647.28
2022-10-29T01:39:03.506Z,99647.69
2022-10-29T01:41:50.685Z,99652.97
2022-10-29T01:44:30.162Z,99650.09
2022-10-29T01:47:01.170Z,99643.97
2022-10-29T01:49:33.577Z,99644.50
2022-10-29T01:52:02.523Z,99649.78
2022-10-29T01:54:29.291Z,99641.19
2022-10-29T01:56:59.828Z,99643.41
2022-10-29T01:59:36.360Z,99640.78
2022-10-29T02:02:29.741Z,99635.38
2022-10-29T02:05:32.379Z,99644.66
2022-10-29T02:08:22.240Z,99636.22
2022-10-29T02:10:56.794Z,99629.25
2022-10-29T02:13:30.868Z,99625.09
2022-10-29T02:15:58.910Z,99619.00
2022-10-29T02:18:25.728Z,99617.88
2022-10-29T02:20:52.486Z,99620.25
2022-10-29T02:23:19.365Z,99619.81
2022-10-29T02:25:46.174Z,99612.22
2022-10-29T02:28:13.322Z,99616.09
2022-10-29T02:30:40.135Z,99616.09
2022-10-29T02:33:06.851Z,99618.00
2022-10-29T02:35:33.634Z,99619.81
2022-10-29T02:38:00.589Z,99619.28
2022-10-29T02:40:27.278Z,99616.78
2022-10-29T02:42:55.180Z,99613.16
2022-10-29T02:45:22.107Z,99615.94
2022-10-29T02:47:48.869Z,99615.94
2022-10-29T02:50:15.839Z,99617.03
2022-10-29T02:52:42.560Z,99618.31
2022-10-29T02:55:09.744Z,99611.81
2022-10-29T02:57:36.569Z,99617.88
2022-10-29T03:00:04.200Z,99615.94
2022-10-29T03:02:30.919Z,99606.13
2022-10-29T03:04:57.656Z,99607.63
2022-10-29T03:07:24.685Z,99618.31
2022-10-29T03:09:51.463Z,99619.81
2022-10-29T03:12:18.366Z,99620.63
2022-10-29T03:14:45.079Z,99617.69
2022-10-29T03:17:11.914Z,99616.59
2022-10-29T03:19:38.796Z,99608.41
2022-10-29T03:22:05.474Z,99612.00
2022-10-29T03:24:32.251Z,99618.78
2022-10-29T03:26:59.102Z,99620.03
2022-10-29T03:29:25.765Z,99627.50
2022-10-29T03:31:52.588Z,99626.69
2022-10-29T03:34:19.344Z,99623.50
2022-10-29T03:36:46.141Z,99628.72
2022-10-29T03:39:12.904Z,99634.94
2022-10-29T03:41:39.645Z,99651.03
2022-10-29T03:44:06.383Z,99650.19
2022-10-29T03:46:33.322Z,99650.19
2022-10-29T03:49:00.245Z,99644.25
2022-10-29T03:51:26.967Z,99641.88
2022-10-29T03:53:53.856Z,99640.50
2022-10-29T03:56:21.001Z,99640.34
2022-10-29T03:58:47.690Z,99639.66
2022-10-29T04:01:14.571Z,99629.38
2022-10-29T04:03:42.598Z,99619.38
2022-10-29T04:06:11.905Z,99620.81
2022-10-29T04:08:38.925Z,99620.81
2022-10-29T04:11:06.283Z,99624.53
2022-10-29T04:13:33.061Z,99632.38
2022-10-29T04:15:59.807Z,99626.41
2022-10-29T04:18:26.636Z,99635.56
2022-10-29T04:28:10.313Z,99648.41
2022-10-29T04:29:14.585Z,99652.03
2022-10-29T04:31:41.531Z,99641.69
2022-10-29T04:34:08.419Z,99643.44
2022-10-29T04:36:35.271Z,99644.19
2022-10-29T04:39:02.349Z,99643.09
2022-10-29T04:41:29.322Z,99644.25
2022-10-29T04:43:56.391Z,99648.16
2022-10-29T04:46:23.311Z,99639.84
2022-10-29T04:48:50.487Z,99652.28
2022-10-29T04:51:21.782Z,99649.66
2022-10-29T04:53:48.893Z,99650.38
2022-10-29T04:56:15.974Z,99647.00
2022-10-29T04:58:42.702Z,99654.22
2022-10-29T05:01:09.598Z,99650.88
2022-10-29T05:03:36.645Z,99655.06
2022-10-29T05:06:05.567Z,99648.72
2022-10-29T05:08:32.685Z,99647.25
2022-10-29T05:11:03.476Z,99642.00
2022-10-29T05:13:30.422Z,99649.19
2022-10-29T05:15:57.286Z,99645.84
2022-10-29T05:18:24.199Z,99646.50
2022-10-29T05:20:55.129Z,99636.94
2022-10-29T05:23:22.102Z,99642.25
2022-10-29T05:25:49.372Z,99641.81
2022-10-29T05:28:21.511Z,99637.81
2022-10-29T05:30:52.802Z,99639.47
2022-10-29T05:33:21.826Z,99648.03
2022-10-29T05:35:49.074Z,99648.59
2022-10-29T05:38:16.247Z,99636.06
2022-10-29T05:40:45.430Z,99639.19
2022-10-29T05:43:16.620Z,99643.38
2022-10-29T05:45:44.073Z,99647.44
2022-10-29T05:50:58.854Z,99642.41
2022-10-29T05:53:25.774Z,99627.03
2022-10-29T05:55:52.538Z,99633.56
2022-10-29T05:58:19.399Z,99631.34
2022-10-29T06:00:46.629Z,99628.69
2022-10-29T06:03:16.339Z,99631.91
2022-10-29T06:05:43.324Z,99621.66
2022-10-29T06:08:10.702Z,99623.56
2022-10-29T06:10:37.578Z,99622.75
2022-10-29T06:13:13.187Z,99623.44
2022-10-29T06:15:40.191Z,99625.22
2022-10-29T06:18:07.117Z,99626.06
2022-10-29T06:20:34.030Z,99624.00
2022-10-29T06:23:00.822Z,99629.88
2022-10-29T06:25:28.125Z,99627.41
2022-10-29T06:28:02.158Z,99619.03
2022-10-29T06:30:30.228Z,99624.34
2022-10-29T06:32:57.462Z,99636.34
2022-10-29T06:35:24.727Z,99651.59
2022-10-29T06:37:51.482Z,99633.00
2022-10-29T06:40:18.368Z,99633.84
2022-10-29T06:42:45.218Z,99646.41
2022-10-29T06:45:12.207Z,99652.75
2022-10-29T06:47:43.402Z,99645.63
2022-10-29T06:50:11.388Z,99645.41
2022-10-29T06:52:38.557Z,99638.94
2022-10-29T06:55:06.271Z,99639.50
2022-10-29T06:57:33.093Z,99647.66
2022-10-29T07:00:05.308Z,99652.78
2022-10-29T07:02:35.449Z,99642.66
2022-10-29T07:05:02.252Z,99644.63
2022-10-29T07:07:29.451Z,99633.41
2022-10-29T07:09:56.160Z,99652.03
2022-10-29T07:12:22.851Z,99642.38
2022-10-29T07:14:49.565Z,99643.22
2022-10-29T07:17:16.338Z,99635.72
2022-10-29T07:19:43.105Z,99640.19
2022-10-29T07:22:09.850Z,99643.94
2022-10-29T07:24:36.533Z,99644.25
2022-10-29T07:27:03.362Z,99641.19
2022-10-29T07:29:30.408Z,99652.16
2022-10-29T07:31:57.130Z,99650.25
2022-10-29T07:34:23.940Z,99646.34
2022-10-29T07:36:50.936Z,99640.28
2022-10-29T07:39:17.685Z,99643.78
2022-10-29T07:41:44.850Z,99632.53
2022-10-29T07:44:11.627Z,99647.34
2022-10-29T07:46:38.299Z,99629.75
2022-10-29T07:49:05.469Z,99627.56
2022-10-29T07:51:32.500Z,99633.66
2022-10-29T07:53:59.249Z,99638.78
2022-10-29T07:56:26.026Z,99642.13
2022-10-29T07:58:52.771Z,99647.09
2022-10-29T08:01:19.677Z,99630.34
2022-10-29T08:03:46.370Z,99636.44
2022-10-29T08:06:13.080Z,99631.75
2022-10-29T08:08:39.911Z,99641.03
2022-10-29T08:11:07.301Z,99637.72
2022-10-29T08:13:34.365Z,99635.91
2022-10-29T08:16:01.008Z,99636.19
2022-10-29T08:18:27.801Z,99635.38
2022-10-29T08:20:54.523Z,99639.25
2022-10-29T08:23:21.288Z,99642.16
2022-10-29T08:25:48.127Z,99647.03
2022-10-29T08:28:15.705Z,99646.16
2022-10-29T08:30:44.274Z,99642.44
2022-10-29T08:33:11.385Z,99648.56
2022-10-29T08:35:38.081Z,99649.41
2022-10-29T08:38:04.907Z,99646.88
2022-10-29T08:40:49.637Z,99642.00
2022-10-29T08:43:22.927Z,99643.81
2022-10-29T08:45:51.353Z,99630.72
2022-10-29T08:48:26.257Z,99623.09
2022-10-29T08:51:32.645Z,99629.34
2022-10-29T08:56:51.072Z,99632.53
2022-10-29T08:59:21.224Z,99629.88
2022-10-29T09:01:48.194Z,99642.50
2022-10-29T09:04:36.508Z,99640.13
2022-10-29T09:07:44.532Z,99628.84
2022-10-29T09:10:33.574Z,99626.03
2022-10-29T09:13:32.373Z,99621.41
2022-10-29T09:16:05.850Z,99623.91
2022-10-29T09:18:58.771Z,99624.84
2022-10-29T09:21:53.377Z,99641.28
2022-10-29T09:24:41.135Z,99639.56
2022-10-29T09:27:44.078Z,99640.66
2022-10-29T09:30:16.803Z,99641.63
2022-10-29T09:33:01.097Z,99641.84
2022-10-29T09:35:48.873Z,99644.28
2022-10-29T09:38:25.812Z,99642.84
2022-10-29T09:40:52.734Z,99646.56
2022-10-29T09:43:57.579Z,99643.00
2022-10-29T09:46:37.846Z,99640.13
2022-10-29T09:49:57.354Z,99644.59
2022-10-29T09:52:28.014Z,99645.00
2022-10-29T09:54:55.230Z,99641.66
2022-10-29T09:57:24.425Z,99644.22
2022-10-29T10:00:00.017Z,99643.94
2022-10-29T10:02:40.852Z,99641.66
2022-10-29T10:05:23.935Z,99645.00
2022-10-29T10:08:14.483Z,99646.53
2022-10-29T10:10:54.357Z,99635.81
2022-10-29T10:13:27.010Z,99636.31
2022-10-29T10:16:02.464Z,99624.94
2022-10-29T10:18:47.190Z,99625.78
2022-10-29T10:21:35.663Z,99630.13
2022-10-29T10:24:03.137Z,99622.19
2022-10-29T10:26:57.132Z,99620.38
2022-10-29T10:29:27.653Z,99614.09
2022-10-29T10:32:17.774Z,99617.06
2022-10-29T10:34:44.711Z,99612.00
2022-10-29T10:37:16.250Z,99608.34
2022-10-29T10:39:45.555Z,99605.38
2022-10-29T10:42:47.231Z,99593.94
2022-10-29T10:45:24.040Z,99588.81
2022-10-29T10:47:57.968Z,99581.84
2022-10-29T10:50:28.869Z,99582.84
2022-10-29T10:53:00.792Z,99581.53
2022-10-29T10:55:54.220Z,99587.81
2022-10-29T10:58:40.875Z,99575.56
2022-10-29T11:01:13.036Z,99585.84
2022-10-29T11:03:45.870Z,99578.56
2022-10-29T11:06:33.165Z,99570.63
2022-10-29T11:09:12.784Z,99568.47
2022-10-29T11:11:44.066Z,99564.13
2022-10-29T11:14:50.315Z,99567.28
2022-10-29T11:17:32.740Z,99570.94
2022-10-29T11:20:04.660Z,99569.28
2022-10-29T11:22:50.417Z,99572.75
2022-10-29T11:25:21.783Z,99572.25
2022-10-29T11:28:29.277Z,99570.56
2022-10-29T11:31:05.563Z,99574.06
2022-10-29T11:33:52.888Z,99567.25
2022-10-29T11:36:24.025Z,99567.91
2022-10-29T11:39:04.330Z,99559.28
2022-10-29T11:41:55.447Z,99563.06
2022-10-29T11:44:22.743Z,99556.91
2022-10-29T11:47:10.647Z,99542.19
2022-10-29T11:50:10.622Z,99549.28
2022-10-29T11:53:16.390Z,99552.25
2022-10-29T11:55:57.919Z,99542.59
2022-10-29T11:58:51.829Z,99552.19
2022-10-29T12:01:38.600Z,99544.50
2022-10-29T12:04:27.627Z,99530.16
2022-10-29T12:07:08.932Z,99530.16
2022-10-29T12:10:02.178Z,99525.50
2022-10-29T12:12:47.042Z,99527.28
2022-10-29T12:15:33.173Z,99518.78
2022-10-29T12:18:06.471Z,99521.94
2022-10-29T12:20:49.706Z,99522.41
2022-10-29T12:23:41.868Z,99524.66
2022-10-29T12:26:26.669Z,99514.16
2022-10-29T12:29:02.104Z,99513.47
2022-10-29T12:31:39.617Z,99511.28
2022-10-29T12:34:31.452Z,99500.09
2022-10-29T12:37:36.704Z,99494.44
2022-10-29T12:40:12.861Z,99496.84
2022-10-29T12:42:39.998Z,99499.97
2022-10-29T12:49:32.802Z,99493.09
2022-10-29T12:52:05.451Z,99497.72
2022-10-29T12:54:44.036Z,99491.09
2022-10-29T12:57:34.835Z,99489.56
2022-10-29T13:00:23.607Z,99491.50
2022-10-29T13:02:55.367Z,99485.59
2022-10-29T13:05:44.730Z,99488.56
2022-10-29T13:08:19.310Z,99484.53
2022-10-29T13:10:51.462Z,99488.56
2022-10-29T13:13:27.471Z,99485.81
2022-10-29T13:16:02.799Z,99472.81
2022-10-29T13:18:52.761Z,99477.75
2022-10-29T13:22:01.027Z,99478.19
2022-10-29T13:24:28.795Z,99467.75
2022-10-29T13:27:26.124Z,99464.88
2022-10-29T13:30:25.902Z,99472.78
2022-10-29T13:32:54.092Z,99466.63
2022-10-29T13:35:21.503Z,99468.94
2022-10-29T13:38:16.436Z,99470.59
2022-10-29T13:41:05.629Z,99472.94
2022-10-29T13:43:33.674Z,99468.50
2022-10-29T13:46:17.574Z,99469.06
2022-10-29T13:48:45.129Z,99468.50
2022-10-29T13:51:16.497Z,99472.63
2022-10-29T13:53:50.205Z,99466.13
2022-10-29T13:56:29.422Z,99468.88
2022-10-29T13:58:59.961Z,99466.47
2022-10-29T14:01:27.753Z,99471.59
2022-10-29T14:04:11.616Z,99474.09
2022-10-29T14:06:39.853Z,99464.91
2022-10-29T14:09:21.500Z,99460.22
2022-10-29T14:12:00.079Z,99464.91
2022-10-29T14:15:02.301Z,99451.75
2022-10-29T14:17:29.123Z,99457.38
2022-10-29T14:19:55.881Z,99453.44
2022-10-29T14:22:41.011Z,99454.25
2022-10-29T14:25:36.538Z,99456.72
2022-10-29T14:28:32.414Z,99465.91
2022-10-29T14:31:20.531Z,99466.84
2022-10-29T14:33:56.929Z,99469.50
2022-10-29T14:36:32.345Z,99456.94
2022-10-29T14:39:03.364Z,99456.09
2022-10-29T14:41:31.160Z,99457.94
2022-10-29T14:44:19.099Z,99460.16
2022-10-29T14:47:05.517Z,99452.19
2022-10-29T14:49:34.435Z,99451.78
2022-10-29T14:52:07.146Z,99452.97
2022-10-29T14:54:40.104Z,99456.25
2022-10-29T14:57:13.284Z,99458.66
2022-10-29T14:59:46.491Z,99453.72
2022-10-29T15:05:07.078Z,99451.50
2022-10-29T15:07:35.677Z,99461.31
2022-10-29T15:10:28.738Z,99451.50
2022-10-29T15:12:55.732Z,99453.44
2022-10-29T15:15:28.172Z,99453.59
2022-10-29T15:17:58.988Z,99454.63
2022-10-29T15:20:48.469Z,99465.28
2022-10-29T15:23:26.796Z,99459.38
2022-10-29T15:26:23.338Z,99468.00
2022-10-29T15:28:55.429Z,99464.25
2022-10-29T15:31:34.855Z,99453.50
2022-10-29T15:34:09.613Z,99459.34
2022-10-29T15:36:49.732Z,99459.25
2022-10-29T15:39:58.412Z,99457.94
2022-10-29T15:42:30.720Z,99455.19
2022-10-29T15:45:19.079Z,99458.00
2022-10-29T15:47:58.322Z,99457.38
2022-10-29T15:50:46.096Z,99450.13
2022-10-29T15:53:16.744Z,99450.28
2022-10-29T15:55:44.120Z,99444.72
2022-10-29T15:58:16.683Z,99448.56
2022-10-29T16:00:44.124Z,99442.41
2022-10-29T16:03:34.157Z,99445.66
2022-10-29T16:06:06.033Z,99450.69
2022-10-29T16:08:44.043Z,99447.56
2022-10-29T16:11:14.107Z,99453.41
2022-10-29T16:13:41.603Z,99446.97
2022-10-29T16:16:19.365Z,99451.63
2022-10-29T16:18:47.118Z,99454.81
2022-10-29T16:21:16.580Z,99455.50
2022-10-29T16:23:44.343Z,99451.91
2022-10-29T16:26:16.503Z,99453.25
2022-10-29T16:28:43.880Z,99449.34
2022-10-29T16:31:27.885Z,99441.41
2022-10-29T16:33:59.245Z,99451.38
2022-10-29T16:36:26.135Z,99444.94
2022-10-29T16:38:53.111Z,99449.59
2022-10-29T16:41:20.936Z,99452.94
2022-10-29T16:43:48.472Z,99454.78
2022-10-29T16:46:15.762Z,99451.53
2022-10-29T16:48:42.654Z,99459.81
2022-10-29T16:51:10.090Z,99459.81
2022-10-29T16:53:36.861Z,99454.88
2022-10-29T16:56:04.036Z,99439.47
2022-10-29T16:58:31.136Z,99437.50
2022-10-29T17:01:06.229Z,99443.34
2022-10-29T17:03:33.502Z,99439.03
2022-10-29T17:06:08.239Z,99437.72
2022-10-29T17:08:35.639Z,99440.00
2022-10-29T17:11:04.331Z,99446.81
2022-10-29T17:13:30.974Z,99453.75
2022-10-29T17:15:58.124Z,99456.22
2022-10-29T17:18:24.980Z,99455.94
2022-10-29T17:20:56.348Z,99450.63
2022-10-29T17:23:23.313Z,99455.72
2022-10-29T17:25:54.605Z,99448.97
2022-10-29T17:28:22.512Z,99459.22
2022-10-29T17:30:49.371Z,99455.22
2022-10-29T17:33:16.608Z,99460.22
2022-10-29T17:35:43.981Z,99470.13
2022-10-29T17:38:11.737Z,99461.84
2022-10-29T17:40:38.511Z,99462.81
2022-10-29T17:43:05.250Z,99466.47
2022-10-29T17:45:32.181Z,99465.97
2022-10-29T17:47:59.713Z,99472.25
2022-10-29T17:50:27.141Z,99467.28
2022-10-29T17:52:54.688Z,99462.47
2022-10-29T17:55:21.523Z,99468.25
2022-10-29T17:57:48.285Z,99466.13
2022-10-29T18:00:15.589Z,99467.13
2022-10-29T18:02:42.593Z,99475.69
2022-10-29T18:05:09.663Z,99474.34
2022-10-29T18:07:36.568Z,99480.31
2022-10-29T18:10:03.925Z,99477.97
2022-10-29T18:12:30.647Z,99485.56
2022-10-29T18:14:57.392Z,99484.56
2022-10-29T18:17:24.416Z,99479.59
2022-10-29T18:19:51.105Z,99482.22
2022-10-29T18:22:17.944Z,99483.50
2022-10-29T18:24:44.651Z,99479.72
2022-10-29T18:27:11.417Z,99477.84
2022-10-29T18:29:38.073Z,99474.19
2022-10-29T18:32:05.314Z,99473.22
2022-10-29T18:34:34.347Z,99474.88
2022-10-29T18:37:01.125Z,99463.59
2022-10-29T18:39:28.112Z,99471.84
2022-10-29T18:41:54.800Z,99478.78
2022-10-29T18:44:21.664Z,99472.97
2022-10-29T18:46:48.383Z,99476.31
2022-10-29T18:49:15.810Z,99480.28
2022-10-29T18:51:42.485Z,99475.47
2022-10-29T18:54:11.112Z,99477.13
2022-10-29T18:56:37.818Z,99471.69
2022-10-29T18:59:05.060Z,99475.44
2022-10-29T19:01:33.838Z,99479.06
2022-10-29T19:04:02.604Z,99469.47
2022-10-29T19:06:31.936Z,99475.75
2022-10-29T19:09:01.102Z,99466.78
2022-10-29T19:11:28.709Z,99471.56
2022-10-29T19:13:57.426Z,99476.31
2022-10-29T19:16:24.580Z,99475.38
2022-10-29T19:19:00.406Z,99476.69
2022-10-29T19:21:27.605Z,99469.09
2022-10-29T19:23:59.343Z,99471.72
2022-10-29T19:26:28.685Z,99471.66
2022-10-29T19:28:55.647Z,99466.34
2022-10-29T19:31:24.587Z,99467.19
2022-10-29T19:33:53.385Z,99472.97
2022-10-29T19:36:20.842Z,99473.22
2022-10-29T19:38:48.238Z,99473.06
2022-10-29T19:41:15.820Z,99470.94
2022-10-29T19:43:42.838Z,99465.66
2022-10-29T19:46:12.710Z,99465.91
2022-10-29T19:48:40.083Z,99455.97
2022-10-29T19:51:07.625Z,99464.75
2022-10-29T19:53:34.347Z,99466.78
2022-10-29T19:56:01.000Z,99461.88
2022-10-29T19:58:28.045Z,99465.94
2022-10-29T20:00:55.545Z,99469.44
2022-10-29T20:03:22.272Z,99463.63
2022-10-29T20:05:49.399Z,99460.47
2022-10-29T20:08:16.495Z,99455.81
2022-10-29T20:10:44.033Z,99463.03
2022-10-29T20:13:11.110Z,99461.31
2022-10-29T20:15:40.966Z,99456.19
2022-10-29T20:18:07.665Z,99451.72
2022-10-29T20:20:34.976Z,99449.09
2022-10-29T20:23:02.060Z,99441.38
2022-10-29T20:25:29.088Z,99444.38
2022-10-29T20:27:55.805Z,99447.94
2022-10-29T20:30:22.471Z,99451.56
2022-10-29T20:32:49.388Z,99444.00
2022-10-29T20:35:17.049Z,99444.63
2022-10-29T20:37:44.125Z,99434.97
2022-10-29T20:40:11.749Z,99425.84
2022-10-29T20:42:38.681Z,99436.56
2022-10-29T20:45:06.053Z,99441.59
2022-10-29T20:47:33.019Z,99443.13
2022-10-29T20:49:59.780Z,99441.16
2022-10-29T20:52:26.555Z,99441.31
2022-10-29T20:54:53.201Z,99446.88
2022-10-29T20:57:20.025Z,99443.56
2022-10-29T20:59:46.727Z,99435.25
2022-10-29T21:02:13.591Z,99436.38
2022-10-29T21:04:40.284Z,99446.34
2022-10-29T21:07:07.984Z,99441.41
2022-10-29T21:09:35.273Z,99443.78
2022-10-29T21:12:02.252Z,99441.22
2022-10-29T21:14:29.896Z,99439.00
2022-10-29T21:16:56.612Z,99441.22
2022-10-29T21:19:24.284Z,99444.28
2022-10-29T21:21:50.995Z,99447.28
2022-10-29T21:24:18.183Z,99441.22
2022-10-29T21:26:45.001Z,99443.16
2022-10-29T21:29:11.856Z,99440.91
2022-10-29T21:31:38.751Z,99446.03
2022-10-29T21:34:05.643Z,99445.03
2022-10-29T21:36:32.385Z,99439.47
2022-10-29T21:38:59.218Z,99442.88
2022-10-29T21:41:25.837Z,99441.28
2022-10-29T21:43:52.646Z,99436.75
2022-10-29T21:46:19.406Z,99435.00
2022-10-29T21:48:46.197Z,99433.94
2022-10-29T21:51:14.516Z,99436.53
2022-10-29T21:53:41.290Z,99435.97
2022-10-29T21:56:10.158Z,99434.16
2022-10-29T21:58:37.028Z,99435.41
2022-10-29T22:01:15.198Z,99435.41
2022-10-29T22:03:43.734Z,99434.94
2022-10-29T22:06:18.781Z,99437.88
2022-10-29T22:08:46.377Z,99433.16
2022-10-29T22:11:14.644Z,99427.69
2022-10-29T22:13:41.577Z,99419.25
2022-10-29T22:16:09.168Z,99413.00
2022-10-29T22:18:36.965Z,99417.63
2022-10-29T22:21:24.915Z,99415.84
2022-10-29T22:23:56.585Z,99413.06
2022-10-29T22:26:25.827Z,99416.16
2022-10-29T22:28:52.936Z,99413.81
2022-10-29T22:31:21.127Z,99413.81
2022-10-29T22:33:48.546Z,99413.94
2022-10-29T22:36:20.267Z,99410.19
2022-10-29T22:38:47.004Z,99413.28
2022-10-29T22:41:16.765Z,99407.88
2022-10-29T22:43:44.032Z,99401.59
2022-10-29T22:46:12.988Z,99401.91
2022-10-29T22:48:39.861Z,99393.59
2022-10-29T22:51:14.800Z,99398.53
2022-10-29T22:53:41.882Z,99396.09
2022-10-29T22:56:13.356Z,99396.53
2022-10-29T22:58:40.729Z,99395.28
2022-10-29T23:01:09.942Z,99397.22
2022-10-29T23:03:39.673Z,99389.63
2022-10-29T23:06:09.293Z,99388.09
2022-10-29T23:08:38.820Z,99386.59
2022-10-29T23:11:22.193Z,99389.28
2022-10-29T23:13:57.728Z,99392.59
2022-10-29T23:16:27.391Z,99388.03
2022-10-29T23:18:58.841Z,99389.25
2022-10-29T23:21:26.502Z,99389.28
2022-10-29T23:23:57.524Z,99391.34
2022-10-29T23:26:29.291Z,99387.75
2022-10-29T23:28:59.484Z,99391.47
2022-10-29T23:31:30.552Z,99384.16
2022-10-29T23:34:00.868Z,99393.44
2022-10-29T23:36:28.096Z,99386.50
2022-10-29T23:39:07.118Z,99390.38
2022-10-29T23:41:34.282Z,99383.72
2022-10-29T23:44:01.053Z,99387.38
2022-10-29T23:46:28.134Z,99388.00
2022-10-29T23:48:58.284Z,99377.31
2022-10-29T23:51:26.696Z,99378.25
2022-10-29T23:53:56.609Z,99378.78
2022-10-29T23:56:28.269Z,99380.06
2022-10-29T23:59:00.110Z,99381.28
